Elba, AL

7:06 AM CDT on August 01, 2014 (GMT -0500)
Andalusia (K79J) Elev 308 ft | 31.31 °N, 86.39 °W | Change Station

Current weather conditions updated 10 minutes ago

Clear
Clear
74 °F
Feels Like 74 °F
N
4
Wind Variable Wind from East

Today is forecast to be nearly the same temperature as yesterday.

Today
High -- | Low -- °F
--% Chance of Precip.
Yesterday
High -- | Low -- °F
Precip. -- in
6:00 AM 7:40 PM
Waxing Crescent, 26% visible
Pressure 29.98 in
Visibility 10.0 miles
Clouds Clear
Dew Point 68 °F
Humidity 82%
Rainfall 0.00 in
Snow Depth Not available.
UV 1 out of 12
Pollen 5.60 out of 12
Air Quality Not available.
Flu Activity Not available.
METAR K79J 011156Z AUTO 09003KT 10SM CLR 23/20 A2999 RMK AO2 SLP152 T02330200 10233 20222 53008

More Conditions Fewer Conditions

Pressure 29.98 in
Visibility 10.0 miles
Clouds Clear
Dew Point 68 °F
Humidity 82%
Rainfall 0.00 in
Snow Depth Not available.
UV 1 out of 12
Pollen 5.60 out of 12
Air Quality Not available.
Flu Activity Not available.
METAR K79J 011156Z AUTO 09003KT 10SM CLR 23/20 A2999 RMK AO2 SLP152 T02330200 10233 20222 53008

More Conditions Fewer Conditions

10-Day Weather Forecast

Almanac

Astronomy

Aug. 01, 2014 Rise Set
Actual Time 6:00 AM CDT 7:40 PM CDT
Civil Twilight 5:34 AM CDT 8:06 PM CDT
Nautical Twilight 5:02 AM CDT 8:38 PM CDT
Astronomical Twilight 4:29 AM CDT 9:11 PM CDT
Moon 11:00 AM CDT 10:49 PM CDT
Length of Visible Light 14h 32m
Length of Day
13h 39m
Tomorrow will be 1m 26s shorter.
Waxing Crescent, 26% of the Moon is Illuminated
Today
Waxing Crescent
Aug 3
First Quarter
Aug 10
Full
Aug 17
Last Quarter
Aug 25
New

Today's Extremes

State Highs State Lows

Community

WunderPhotos

Upload Photos

1,739,544 photos uploaded!

Nearby

Snow Depth

Station Depth Elevation
No new snow has been reported.

Earthquake Activity

City Distance Mag. Time & Date
No recent earthquake activity has been reported nearby.
Minimum magnitude displayed is 2.5.

Coastal Water Temperatures

Place Temperature
No Stations Reporting

Nearby Weather Stations

Station Location Temp. Heat Index Dew Point Humidity Wind Precip. Elev Updated Type
Willow Bend, Enterprise, AL 71.6 °F 71 °F 66 °F 84% West  at  0.0 mph 0.00 in / hr 353 ft 7:06 AM CDT Rapid Fire
Opp Cablevision Headend, Opp, AL 70.1 °F - 68 °F 93% East  at  1.0 mph 0.00 in / hr 327 ft 7:06 AM CDT Rapid Fire
Cotton Creek, Enterprise, AL 70.3 °F - 69 °F 95% North  at  2.0 mph 0.00 in / hr 358 ft 7:06 AM CDT Rapid Fire
299/84 Bypass - Hub Brown Rd, Opp, AL 67.5 °F - 67 °F 99% NNE  at  0.0 mph 0.00 in / hr 280 ft 6:53 AM CDT Normal
Rolling Pines, Enterprise, AL 64.2 °F - 64 °F 99% South  at  0.0 mph - / hr 256 ft 6:52 AM CDT Normal
3 B Farms Goshen Al, Troy, AL 68.9 °F - 68 °F 97% SSW  at  0.0 mph - / hr 400 ft 6:55 AM CDT Normal
Heath, AL 68.2 °F - 67 °F 97% NW  at  0.0 mph 0.00 in / hr 367 ft 6:15 AM CDT Rapid Fire

Show More Stations Show Fewer Stations